sensor_id;sensor_type;location;lat;lon;timestamp;temperature;humidity
37322;DHT22;23697;48.684;9.032;2022-10-16T00:02:02;14.60;89.00
37322;DHT22;23697;48.684;9.032;2022-10-16T00:04:30;14.60;89.10
37322;DHT22;23697;48.684;9.032;2022-10-16T00:06:56;14.60;89.10
37322;DHT22;23697;48.684;9.032;2022-10-16T00:09:23;14.50;89.10
37322;DHT22;23697;48.684;9.032;2022-10-16T00:11:50;14.50;89.10
37322;DHT22;23697;48.684;9.032;2022-10-16T00:14:17;14.40;89.10
37322;DHT22;23697;48.684;9.032;2022-10-16T00:16:44;14.50;89.10
37322;DHT22;23697;48.684;9.032;2022-10-16T00:19:11;14.50;89.10
37322;DHT22;23697;48.684;9.032;2022-10-16T00:21:39;14.40;89.10
37322;DHT22;23697;48.684;9.032;2022-10-16T00:24:06;14.40;89.10
37322;DHT22;23697;48.684;9.032;2022-10-16T00:26:34;14.40;89.10
37322;DHT22;23697;48.684;9.032;2022-10-16T00:29:01;14.40;89.10
37322;DHT22;23697;48.684;9.032;2022-10-16T00:31:28;14.30;89.10
37322;DHT22;23697;48.684;9.032;2022-10-16T00:33:55;14.40;89.10
37322;DHT22;23697;48.684;9.032;2022-10-16T00:36:22;14.40;89.10
37322;DHT22;23697;48.684;9.032;2022-10-16T00:38:51;14.40;89.10
37322;DHT22;23697;48.684;9.032;2022-10-16T00:41:20;14.40;89.10
37322;DHT22;23697;48.684;9.032;2022-10-16T00:43:48;14.40;89.10
37322;DHT22;23697;48.684;9.032;2022-10-16T00:46:16;14.40;89.10
37322;DHT22;23697;48.684;9.032;2022-10-16T00:48:45;14.40;89.00
37322;DHT22;23697;48.684;9.032;2022-10-16T00:51:13;14.40;89.00
37322;DHT22;23697;48.684;9.032;2022-10-16T00:53:40;14.40;89.00
37322;DHT22;23697;48.684;9.032;2022-10-16T00:56:08;14.40;89.00
37322;DHT22;23697;48.684;9.032;2022-10-16T00:58:35;14.40;89.00
37322;DHT22;23697;48.684;9.032;2022-10-16T01:01:01;14.40;88.90
37322;DHT22;23697;48.684;9.032;2022-10-16T01:03:29;14.40;88.90
37322;DHT22;23697;48.684;9.032;2022-10-16T01:06:02;14.40;88.80
37322;DHT22;23697;48.684;9.032;2022-10-16T01:08:34;14.50;88.80
37322;DHT22;23697;48.684;9.032;2022-10-16T01:11:04;14.40;88.80
37322;DHT22;23697;48.684;9.032;2022-10-16T01:13:34;14.40;88.80
37322;DHT22;23697;48.684;9.032;2022-10-16T01:16:04;14.40;88.80
37322;DHT22;23697;48.684;9.032;2022-10-16T01:18:34;14.50;88.80
37322;DHT22;23697;48.684;9.032;2022-10-16T01:21:03;14.40;88.80
37322;DHT22;23697;48.684;9.032;2022-10-16T01:23:36;14.30;88.80
37322;DHT22;23697;48.684;9.032;2022-10-16T01:26:11;14.30;88.80
37322;DHT22;23697;48.684;9.032;2022-10-16T01:28:43;14.40;88.90
37322;DHT22;23697;48.684;9.032;2022-10-16T01:31:12;14.20;88.80
37322;DHT22;23697;48.684;9.032;2022-10-16T01:33:41;14.20;88.90
37322;DHT22;23697;48.684;9.032;2022-10-16T01:36:10;14.20;89.00
37322;DHT22;23697;48.684;9.032;2022-10-16T01:38:38;14.10;89.00
37322;DHT22;23697;48.684;9.032;2022-10-16T01:41:07;14.10;89.10
37322;DHT22;23697;48.684;9.032;2022-10-16T01:43:35;14.10;89.20
37322;DHT22;23697;48.684;9.032;2022-10-16T01:46:04;14.10;89.30
37322;DHT22;23697;48.684;9.032;2022-10-16T01:48:31;14.10;89.40
37322;DHT22;23697;48.684;9.032;2022-10-16T01:51:00;14.10;89.40
37322;DHT22;23697;48.684;9.032;2022-10-16T01:53:27;14.10;89.40
37322;DHT22;23697;48.684;9.032;2022-10-16T01:55:54;14.10;89.50
37322;DHT22;23697;48.684;9.032;2022-10-16T01:58:22;14.10;89.60
37322;DHT22;23697;48.684;9.032;2022-10-16T02:00:49;14.10;89.60
37322;DHT22;23697;48.684;9.032;2022-10-16T02:03:18;14.10;89.60
37322;DHT22;23697;48.684;9.032;2022-10-16T02:05:46;14.10;89.60
37322;DHT22;23697;48.684;9.032;2022-10-16T02:08:14;14.10;89.60
37322;DHT22;23697;48.684;9.032;2022-10-16T02:10:41;14.20;89.60
37322;DHT22;23697;48.684;9.032;2022-10-16T02:13:09;14.20;89.50
37322;DHT22;23697;48.684;9.032;2022-10-16T02:15:37;14.30;89.50
37322;DHT22;23697;48.684;9.032;2022-10-16T02:18:03;14.30;89.40
37322;DHT22;23697;48.684;9.032;2022-10-16T02:20:34;14.30;89.40
37322;DHT22;23697;48.684;9.032;2022-10-16T02:23:03;14.40;89.30
37322;DHT22;23697;48.684;9.032;2022-10-16T02:25:30;14.40;89.40
37322;DHT22;23697;48.684;9.032;2022-10-16T02:27:59;14.40;89.30
37322;DHT22;23697;48.684;9.032;2022-10-16T02:30:27;14.40;89.30
37322;DHT22;23697;48.684;9.032;2022-10-16T02:32:55;14.40;89.30
37322;DHT22;23697;48.684;9.032;2022-10-16T02:35:23;14.40;89.30
37322;DHT22;23697;48.684;9.032;2022-10-16T02:37:51;14.40;89.30
37322;DHT22;23697;48.684;9.032;2022-10-16T02:40:18;14.40;89.30
37322;DHT22;23697;48.684;9.032;2022-10-16T02:42:49;14.40;89.30
37322;DHT22;23697;48.684;9.032;2022-10-16T02:45:15;14.40;89.20
37322;DHT22;23697;48.684;9.032;2022-10-16T02:47:43;14.40;89.20
37322;DHT22;23697;48.684;9.032;2022-10-16T02:50:10;14.40;89.10
37322;DHT22;23697;48.684;9.032;2022-10-16T02:52:36;14.40;89.10
37322;DHT22;23697;48.684;9.032;2022-10-16T02:55:05;14.40;89.10
37322;DHT22;23697;48.684;9.032;2022-10-16T02:57:32;14.40;89.00
37322;DHT22;23697;48.684;9.032;2022-10-16T02:59:58;14.40;89.00
37322;DHT22;23697;48.684;9.032;2022-10-16T03:02:25;14.40;89.00
37322;DHT22;23697;48.684;9.032;2022-10-16T03:04:51;14.40;88.90
37322;DHT22;23697;48.684;9.032;2022-10-16T03:07:18;14.40;89.00
37322;DHT22;23697;48.684;9.032;2022-10-16T03:09:45;14.40;88.90
37322;DHT22;23697;48.684;9.032;2022-10-16T03:12:13;14.30;88.90
37322;DHT22;23697;48.684;9.032;2022-10-16T03:14:39;14.40;88.90
37322;DHT22;23697;48.684;9.032;2022-10-16T03:17:06;14.40;88.90
37322;DHT22;23697;48.684;9.032;2022-10-16T03:19:33;14.40;88.90
37322;DHT22;23697;48.684;9.032;2022-10-16T03:22:01;14.30;88.90
37322;DHT22;23697;48.684;9.032;2022-10-16T03:24:27;14.40;88.90
37322;DHT22;23697;48.684;9.032;2022-10-16T03:26:54;14.40;88.90
37322;DHT22;23697;48.684;9.032;2022-10-16T03:29:22;14.40;88.90
37322;DHT22;23697;48.684;9.032;2022-10-16T03:31:51;14.40;88.80
37322;DHT22;23697;48.684;9.032;2022-10-16T03:34:17;14.40;88.80
37322;DHT22;23697;48.684;9.032;2022-10-16T03:36:44;14.30;88.90
37322;DHT22;23697;48.684;9.032;2022-10-16T03:39:10;14.40;88.90
37322;DHT22;23697;48.684;9.032;2022-10-16T03:41:37;14.30;88.90
37322;DHT22;23697;48.684;9.032;2022-10-16T03:44:04;14.30;88.90
37322;DHT22;23697;48.684;9.032;2022-10-16T03:46:32;14.20;89.00
37322;DHT22;23697;48.684;9.032;2022-10-16T03:48:59;14.20;89.00
37322;DHT22;23697;48.684;9.032;2022-10-16T03:51:25;14.10;89.00
37322;DHT22;23697;48.684;9.032;2022-10-16T03:53:52;14.10;89.10
37322;DHT22;23697;48.684;9.032;2022-10-16T03:56:19;14.10;89.20
37322;DHT22;23697;48.684;9.032;2022-10-16T03:58:46;14.10;89.20
37322;DHT22;23697;48.684;9.032;2022-10-16T04:01:12;14.10;89.20
37322;DHT22;23697;48.684;9.032;2022-10-16T04:03:40;14.10;89.20
37322;DHT22;23697;48.684;9.032;2022-10-16T04:06:07;14.10;89.20
37322;DHT22;23697;48.684;9.032;2022-10-16T04:08:34;14.10;89.30
37322;DHT22;23697;48.684;9.032;2022-10-16T04:11:02;14.00;89.30
37322;DHT22;23697;48.684;9.032;2022-10-16T04:13:29;14.00;89.40
37322;DHT22;23697;48.684;9.032;2022-10-16T04:15:55;14.00;89.50
37322;DHT22;23697;48.684;9.032;2022-10-16T04:18:25;13.90;89.50
37322;DHT22;23697;48.684;9.032;2022-10-16T04:26:47;13.80;89.60
37322;DHT22;23697;48.684;9.032;2022-10-16T04:29:13;13.80;89.60
37322;DHT22;23697;48.684;9.032;2022-10-16T04:31:40;13.90;89.70
37322;DHT22;23697;48.684;9.032;2022-10-16T04:34:07;13.90;89.70
37322;DHT22;23697;48.684;9.032;2022-10-16T04:36:33;13.90;89.80
37322;DHT22;23697;48.684;9.032;2022-10-16T04:39:00;13.90;89.70
37322;DHT22;23697;48.684;9.032;2022-10-16T04:41:27;13.90;89.80
37322;DHT22;23697;48.684;9.032;2022-10-16T04:44:09;14.00;89.80
37322;DHT22;23697;48.684;9.032;2022-10-16T04:46:50;14.00;89.70
37322;DHT22;23697;48.684;9.032;2022-10-16T04:49:16;13.90;89.70
37322;DHT22;23697;48.684;9.032;2022-10-16T04:51:45;13.90;89.70
37322;DHT22;23697;48.684;9.032;2022-10-16T04:54:12;13.90;89.80
37322;DHT22;23697;48.684;9.032;2022-10-16T04:56:45;13.90;89.70
37322;DHT22;23697;48.684;9.032;2022-10-16T04:59:14;14.00;89.80
37322;DHT22;23697;48.684;9.032;2022-10-16T05:01:41;14.00;89.70
37322;DHT22;23697;48.684;9.032;2022-10-16T05:04:08;14.00;89.80
37322;DHT22;23697;48.684;9.032;2022-10-16T05:06:34;13.90;89.80
37322;DHT22;23697;48.684;9.032;2022-10-16T05:09:02;13.90;89.80
37322;DHT22;23697;48.684;9.032;2022-10-16T05:11:29;13.90;89.70
37322;DHT22;23697;48.684;9.032;2022-10-16T05:13:55;13.90;89.70
37322;DHT22;23697;48.684;9.032;2022-10-16T05:16:23;13.80;89.70
37322;DHT22;23697;48.684;9.032;2022-10-16T05:18:51;13.80;89.70
37322;DHT22;23697;48.684;9.032;2022-10-16T05:21:17;13.80;89.80
37322;DHT22;23697;48.684;9.032;2022-10-16T05:23:44;13.80;89.80
37322;DHT22;23697;48.684;9.032;2022-10-16T05:26:11;13.80;89.70
37322;DHT22;23697;48.684;9.032;2022-10-16T05:28:38;13.80;89.70
37322;DHT22;23697;48.684;9.032;2022-10-16T05:31:05;13.90;89.70
37322;DHT22;23697;48.684;9.032;2022-10-16T05:33:33;13.80;89.70
37322;DHT22;23697;48.684;9.032;2022-10-16T05:36:01;13.80;89.70
37322;DHT22;23697;48.684;9.032;2022-10-16T05:38:28;13.70;89.70
37322;DHT22;23697;48.684;9.032;2022-10-16T05:40:55;13.60;89.70
37322;DHT22;23697;48.684;9.032;2022-10-16T05:43:21;13.60;89.70
37322;DHT22;23697;48.684;9.032;2022-10-16T05:45:55;13.60;89.80
37322;DHT22;23697;48.684;9.032;2022-10-16T05:48:21;13.60;89.90
37322;DHT22;23697;48.684;9.032;2022-10-16T05:50:50;13.60;89.90
37322;DHT22;23697;48.684;9.032;2022-10-16T05:53:22;13.50;89.90
37322;DHT22;23697;48.684;9.032;2022-10-16T05:55:53;13.50;90.00
37322;DHT22;23697;48.684;9.032;2022-10-16T05:58:20;13.60;90.00
37322;DHT22;23697;48.684;9.032;2022-10-16T06:00:52;13.60;90.00
37322;DHT22;23697;48.684;9.032;2022-10-16T06:03:19;13.60;90.00
37322;DHT22;23697;48.684;9.032;2022-10-16T06:05:46;13.70;90.10
37322;DHT22;23697;48.684;9.032;2022-10-16T06:08:14;13.70;90.10
37322;DHT22;23697;48.684;9.032;2022-10-16T06:10:40;13.70;90.00
37322;DHT22;23697;48.684;9.032;2022-10-16T06:13:07;13.70;90.10
37322;DHT22;23697;48.684;9.032;2022-10-16T06:15:34;13.80;90.10
37322;DHT22;23697;48.684;9.032;2022-10-16T06:18:01;13.80;90.10
37322;DHT22;23697;48.684;9.032;2022-10-16T06:20:28;13.90;90.10
37322;DHT22;23697;48.684;9.032;2022-10-16T06:22:54;14.00;90.10
37322;DHT22;23697;48.684;9.032;2022-10-16T06:25:22;14.10;89.90
37322;DHT22;23697;48.684;9.032;2022-10-16T06:27:49;14.10;89.80
37322;DHT22;23697;48.684;9.032;2022-10-16T06:30:16;14.10;89.80
37322;DHT22;23697;48.684;9.032;2022-10-16T06:32:42;14.20;89.70
37322;DHT22;23697;48.684;9.032;2022-10-16T06:35:09;14.20;89.70
37322;DHT22;23697;48.684;9.032;2022-10-16T06:37:36;14.20;89.60
37322;DHT22;23697;48.684;9.032;2022-10-16T06:40:03;14.20;89.60
37322;DHT22;23697;48.684;9.032;2022-10-16T06:42:31;14.30;89.60
37322;DHT22;23697;48.684;9.032;2022-10-16T06:44:59;14.40;89.60
37322;DHT22;23697;48.684;9.032;2022-10-16T06:47:26;14.40;89.50
37322;DHT22;23697;48.684;9.032;2022-10-16T06:49:53;14.50;89.40
37322;DHT22;23697;48.684;9.032;2022-10-16T06:52:20;14.60;89.20
37322;DHT22;23697;48.684;9.032;2022-10-16T06:54:46;14.60;89.10
37322;DHT22;23697;48.684;9.032;2022-10-16T06:57:13;14.70;88.90
37322;DHT22;23697;48.684;9.032;2022-10-16T06:59:43;14.70;88.90
37322;DHT22;23697;48.684;9.032;2022-10-16T07:02:14;14.70;88.90
37322;DHT22;23697;48.684;9.032;2022-10-16T07:04:41;14.80;89.00
37322;DHT22;23697;48.684;9.032;2022-10-16T07:09:35;14.80;89.00
37322;DHT22;23697;48.684;9.032;2022-10-16T07:12:12;14.90;89.00
37322;DHT22;23697;48.684;9.032;2022-10-16T07:17:59;15.00;88.90
37322;DHT22;23697;48.684;9.032;2022-10-16T07:20:31;15.00;88.80
37322;DHT22;23697;48.684;9.032;2022-10-16T07:22:58;15.00;88.70
37322;DHT22;23697;48.684;9.032;2022-10-16T07:25:26;15.00;88.70
37322;DHT22;23697;48.684;9.032;2022-10-16T07:27:57;15.00;88.70
37322;DHT22;23697;48.684;9.032;2022-10-16T07:30:27;15.00;88.70
37322;DHT22;23697;48.684;9.032;2022-10-16T07:33:09;15.10;88.50
37322;DHT22;23697;48.684;9.032;2022-10-16T07:35:35;15.10;88.20
37322;DHT22;23697;48.684;9.032;2022-10-16T07:38:02;15.10;88.30
37322;DHT22;23697;48.684;9.032;2022-10-16T07:40:44;15.10;88.40
37322;DHT22;23697;48.684;9.032;2022-10-16T07:43:11;15.20;88.40
37322;DHT22;23697;48.684;9.032;2022-10-16T07:45:40;15.20;88.30
37322;DHT22;23697;48.684;9.032;2022-10-16T07:48:17;15.30;88.00
37322;DHT22;23697;48.684;9.032;2022-10-16T07:50:58;15.30;87.80
37322;DHT22;23697;48.684;9.032;2022-10-16T07:53:25;15.40;87.60
37322;DHT22;23697;48.684;9.032;2022-10-16T07:58:47;15.50;87.40
37322;DHT22;23697;48.684;9.032;2022-10-16T08:04:10;15.60;87.30
37322;DHT22;23697;48.684;9.032;2022-10-16T08:06:37;15.60;87.50
37322;DHT22;23697;48.684;9.032;2022-10-16T08:09:12;15.60;87.40
37322;DHT22;23697;48.684;9.032;2022-10-16T08:11:40;15.70;87.30
37322;DHT22;23697;48.684;9.032;2022-10-16T08:14:14;15.80;87.30
37322;DHT22;23697;48.684;9.032;2022-10-16T08:16:41;15.80;86.80
37322;DHT22;23697;48.684;9.032;2022-10-16T08:19:13;15.90;86.80
37322;DHT22;23697;48.684;9.032;2022-10-16T08:21:40;16.10;86.30
37322;DHT22;23697;48.684;9.032;2022-10-16T08:24:07;16.20;86.50
37322;DHT22;23697;48.684;9.032;2022-10-16T08:26:34;16.40;86.30
37322;DHT22;23697;48.684;9.032;2022-10-16T08:29:01;16.50;85.50
37322;DHT22;23697;48.684;9.032;2022-10-16T08:31:27;16.60;85.30
37322;DHT22;23697;48.684;9.032;2022-10-16T08:33:54;16.60;85.30
37322;DHT22;23697;48.684;9.032;2022-10-16T08:36:22;16.60;85.20
37322;DHT22;23697;48.684;9.032;2022-10-16T08:38:50;16.60;84.70
37322;DHT22;23697;48.684;9.032;2022-10-16T08:44:13;16.60;84.50
37322;DHT22;23697;48.684;9.032;2022-10-16T08:46:43;16.60;84.20
37322;DHT22;23697;48.684;9.032;2022-10-16T08:49:12;16.60;84.20
37322;DHT22;23697;48.684;9.032;2022-10-16T08:51:41;16.50;84.10
37322;DHT22;23697;48.684;9.032;2022-10-16T08:54:14;16.50;84.50
37322;DHT22;23697;48.684;9.032;2022-10-16T08:56:42;16.60;84.70
37322;DHT22;23697;48.684;9.032;2022-10-16T08:59:09;16.70;84.90
37322;DHT22;23697;48.684;9.032;2022-10-16T09:01:37;16.80;84.60
37322;DHT22;23697;48.684;9.032;2022-10-16T09:06:55;17.10;84.50
37322;DHT22;23697;48.684;9.032;2022-10-16T09:09:27;17.20;83.40
37322;DHT22;23697;48.684;9.032;2022-10-16T09:11:58;17.40;83.70
37322;DHT22;23697;48.684;9.032;2022-10-16T09:17:14;17.80;82.80
37322;DHT22;23697;48.684;9.032;2022-10-16T09:19:45;18.10;83.10
37322;DHT22;23697;48.684;9.032;2022-10-16T09:22:14;18.40;80.20
37322;DHT22;23697;48.684;9.032;2022-10-16T09:24:42;18.90;80.60
37322;DHT22;23697;48.684;9.032;2022-10-16T09:27:09;19.30;80.20
37322;DHT22;23697;48.684;9.032;2022-10-16T09:29:36;19.50;77.60
37322;DHT22;23697;48.684;9.032;2022-10-16T09:32:07;19.70;76.70
37322;DHT22;23697;48.684;9.032;2022-10-16T09:34:36;20.00;76.30
37322;DHT22;23697;48.684;9.032;2022-10-16T09:37:11;19.90;75.20
37322;DHT22;23697;48.684;9.032;2022-10-16T09:39:47;19.70;74.90
37322;DHT22;23697;48.684;9.032;2022-10-16T09:42:15;19.50;73.90
37322;DHT22;23697;48.684;9.032;2022-10-16T09:44:42;19.30;74.50
37322;DHT22;23697;48.684;9.032;2022-10-16T09:47:12;19.50;75.40
37322;DHT22;23697;48.684;9.032;2022-10-16T09:49:39;19.60;75.30
37322;DHT22;23697;48.684;9.032;2022-10-16T09:52:16;19.80;74.90
37322;DHT22;23697;48.684;9.032;2022-10-16T09:54:50;20.10;76.10
37322;DHT22;23697;48.684;9.032;2022-10-16T09:57:17;20.20;75.00
37322;DHT22;23697;48.684;9.032;2022-10-16T09:59:47;20.20;73.40
37322;DHT22;23697;48.684;9.032;2022-10-16T10:02:15;20.40;74.00
37322;DHT22;23697;48.684;9.032;2022-10-16T10:04:44;20.60;73.30
37322;DHT22;23697;48.684;9.032;2022-10-16T10:07:21;20.70;71.90
37322;DHT22;23697;48.684;9.032;2022-10-16T10:09:51;21.00;71.90
37322;DHT22;23697;48.684;9.032;2022-10-16T10:12:19;21.50;66.80
37322;DHT22;23697;48.684;9.032;2022-10-16T10:14:46;21.80;67.00
37322;DHT22;23697;48.684;9.032;2022-10-16T10:17:15;22.10;65.30
37322;DHT22;23697;48.684;9.032;2022-10-16T10:19:44;22.20;65.90
37322;DHT22;23697;48.684;9.032;2022-10-16T10:25:12;22.10;64.90
37322;DHT22;23697;48.684;9.032;2022-10-16T10:27:43;21.70;64.70
37322;DHT22;23697;48.684;9.032;2022-10-16T10:30:15;21.50;64.90
37322;DHT22;23697;48.684;9.032;2022-10-16T10:32:46;21.40;65.90
37322;DHT22;23697;48.684;9.032;2022-10-16T10:35:17;21.40;68.00
37322;DHT22;23697;48.684;9.032;2022-10-16T10:37:59;21.40;67.50
37322;DHT22;23697;48.684;9.032;2022-10-16T10:40:33;21.40;68.00
37322;DHT22;23697;48.684;9.032;2022-10-16T10:43:04;21.40;67.50
37322;DHT22;23697;48.684;9.032;2022-10-16T10:45:37;21.50;68.20
37322;DHT22;23697;48.684;9.032;2022-10-16T10:48:12;21.30;67.50
37322;DHT22;23697;48.684;9.032;2022-10-16T10:53:30;21.20;68.00
37322;DHT22;23697;48.684;9.032;2022-10-16T10:56:04;21.30;69.00
37322;DHT22;23697;48.684;9.032;2022-10-16T10:58:39;21.20;67.10
37322;DHT22;23697;48.684;9.032;2022-10-16T11:01:10;21.40;67.30
37322;DHT22;23697;48.684;9.032;2022-10-16T11:03:50;21.50;68.20
37322;DHT22;23697;48.684;9.032;2022-10-16T11:06:22;21.70;66.60
37322;DHT22;23697;48.684;9.032;2022-10-16T11:08:52;22.10;67.00
37322;DHT22;23697;48.684;9.032;2022-10-16T11:11:23;22.20;64.00
37322;DHT22;23697;48.684;9.032;2022-10-16T11:13:51;22.10;63.70
37322;DHT22;23697;48.684;9.032;2022-10-16T11:16:22;22.00;64.60
37322;DHT22;23697;48.684;9.032;2022-10-16T11:18:52;21.90;65.70
37322;DHT22;23697;48.684;9.032;2022-10-16T11:21:21;21.80;64.70
37322;DHT22;23697;48.684;9.032;2022-10-16T11:23:50;21.90;65.90
37322;DHT22;23697;48.684;9.032;2022-10-16T11:26:20;22.10;61.80
37322;DHT22;23697;48.684;9.032;2022-10-16T11:28:49;22.20;62.70
37322;DHT22;23697;48.684;9.032;2022-10-16T11:31:17;22.10;60.10
37322;DHT22;23697;48.684;9.032;2022-10-16T11:33:47;22.00;63.00
37322;DHT22;23697;48.684;9.032;2022-10-16T11:36:16;22.00;63.60
37322;DHT22;23697;48.684;9.032;2022-10-16T11:38:48;22.10;62.20
37322;DHT22;23697;48.684;9.032;2022-10-16T11:41:18;22.10;63.00
37322;DHT22;23697;48.684;9.032;2022-10-16T11:43:50;22.20;63.20
37322;DHT22;23697;48.684;9.032;2022-10-16T11:46:20;22.40;62.90
37322;DHT22;23697;48.684;9.032;2022-10-16T11:51:55;22.70;62.20
37322;DHT22;23697;48.684;9.032;2022-10-16T11:54:24;22.90;62.80
37322;DHT22;23697;48.684;9.032;2022-10-16T11:56:55;23.00;60.80
37322;DHT22;23697;48.684;9.032;2022-10-16T11:59:27;23.00;61.00
37322;DHT22;23697;48.684;9.032;2022-10-16T12:01:57;23.10;60.90
37322;DHT22;23697;48.684;9.032;2022-10-16T12:04:26;23.20;61.50
37322;DHT22;23697;48.684;9.032;2022-10-16T12:06:59;23.00;59.20
37322;DHT22;23697;48.684;9.032;2022-10-16T12:09:30;22.80;60.20
37322;DHT22;23697;48.684;9.032;2022-10-16T12:11:57;22.60;61.60
37322;DHT22;23697;48.684;9.032;2022-10-16T12:14:36;22.50;61.60
37322;DHT22;23697;48.684;9.032;2022-10-16T12:17:04;22.50;62.40
37322;DHT22;23697;48.684;9.032;2022-10-16T12:19:56;22.40;61.60
37322;DHT22;23697;48.684;9.032;2022-10-16T12:22:23;22.40;62.60
37322;DHT22;23697;48.684;9.032;2022-10-16T12:24:51;22.50;60.90
37322;DHT22;23697;48.684;9.032;2022-10-16T12:27:21;22.50;60.20
37322;DHT22;23697;48.684;9.032;2022-10-16T12:29:53;22.50;61.60
37322;DHT22;23697;48.684;9.032;2022-10-16T12:32:23;22.60;62.00
37322;DHT22;23697;48.684;9.032;2022-10-16T12:34:53;22.60;61.10
37322;DHT22;23697;48.684;9.032;2022-10-16T12:37:20;22.60;60.20
37322;DHT22;23697;48.684;9.032;2022-10-16T12:39:47;22.80;59.70
37322;DHT22;23697;48.684;9.032;2022-10-16T12:42:31;22.90;58.20
37322;DHT22;23697;48.684;9.032;2022-10-16T12:45:00;22.80;57.70
37322;DHT22;23697;48.684;9.032;2022-10-16T12:47:35;22.60;58.80
37322;DHT22;23697;48.684;9.032;2022-10-16T12:50:02;22.40;58.50
37322;DHT22;23697;48.684;9.032;2022-10-16T12:52:34;22.30;59.60
37322;DHT22;23697;48.684;9.032;2022-10-16T12:55:02;22.20;60.80
37322;DHT22;23697;48.684;9.032;2022-10-16T12:57:32;22.10;60.70
37322;DHT22;23697;48.684;9.032;2022-10-16T13:00:04;22.10;61.10
37322;DHT22;23697;48.684;9.032;2022-10-16T13:02:39;22.10;60.60
37322;DHT22;23697;48.684;9.032;2022-10-16T13:05:14;22.10;61.40
37322;DHT22;23697;48.684;9.032;2022-10-16T13:07:48;22.10;60.20
37322;DHT22;23697;48.684;9.032;2022-10-16T13:13:10;22.20;62.40
37322;DHT22;23697;48.684;9.032;2022-10-16T13:18:24;22.40;61.50
37322;DHT22;23697;48.684;9.032;2022-10-16T13:21:02;22.30;61.80
37322;DHT22;23697;48.684;9.032;2022-10-16T13:23:33;22.50;62.80
37322;DHT22;23697;48.684;9.032;2022-10-16T13:26:06;22.50;61.90
37322;DHT22;23697;48.684;9.032;2022-10-16T13:28:35;22.60;60.00
37322;DHT22;23697;48.684;9.032;2022-10-16T13:31:03;22.80;57.90
37322;DHT22;23697;48.684;9.032;2022-10-16T13:33:33;22.90;57.70
37322;DHT22;23697;48.684;9.032;2022-10-16T13:35:59;23.10;58.30
37322;DHT22;23697;48.684;9.032;2022-10-16T13:38:27;23.20;57.20
37322;DHT22;23697;48.684;9.032;2022-10-16T13:40:55;23.20;58.20
37322;DHT22;23697;48.684;9.032;2022-10-16T13:43:23;23.10;59.60
37322;DHT22;23697;48.684;9.032;2022-10-16T13:45:54;23.10;58.40
37322;DHT22;23697;48.684;9.032;2022-10-16T13:48:21;22.90;59.20
37322;DHT22;23697;48.684;9.032;2022-10-16T13:50:59;22.70;59.00
37322;DHT22;23697;48.684;9.032;2022-10-16T13:53:26;22.60;58.90
37322;DHT22;23697;48.684;9.032;2022-10-16T13:55:52;22.50;59.80
37322;DHT22;23697;48.684;9.032;2022-10-16T13:58:19;22.40;59.80
37322;DHT22;23697;48.684;9.032;2022-10-16T14:00:52;22.30;60.30
37322;DHT22;23697;48.684;9.032;2022-10-16T14:03:19;22.30;60.40
37322;DHT22;23697;48.684;9.032;2022-10-16T14:05:46;22.20;60.60
37322;DHT22;23697;48.684;9.032;2022-10-16T14:08:15;22.20;60.10
37322;DHT22;23697;48.684;9.032;2022-10-16T14:10:42;22.10;60.10
37322;DHT22;23697;48.684;9.032;2022-10-16T14:13:12;22.10;60.90
37322;DHT22;23697;48.684;9.032;2022-10-16T14:15:45;22.10;60.70
37322;DHT22;23697;48.684;9.032;2022-10-16T14:18:13;22.00;60.60
37322;DHT22;23697;48.684;9.032;2022-10-16T14:20:43;22.00;60.80
37322;DHT22;23697;48.684;9.032;2022-10-16T14:23:20;22.00;62.30
37322;DHT22;23697;48.684;9.032;2022-10-16T14:25:47;21.90;61.40
37322;DHT22;23697;48.684;9.032;2022-10-16T14:28:15;21.90;61.80
37322;DHT22;23697;48.684;9.032;2022-10-16T14:30:49;21.80;61.80
37322;DHT22;23697;48.684;9.032;2022-10-16T14:33:20;21.80;62.00
37322;DHT22;23697;48.684;9.032;2022-10-16T14:35:56;21.80;62.50
37322;DHT22;23697;48.684;9.032;2022-10-16T14:38:26;21.80;62.30
37322;DHT22;23697;48.684;9.032;2022-10-16T14:40:54;21.90;62.30
37322;DHT22;23697;48.684;9.032;2022-10-16T14:43:25;22.10;62.20
37322;DHT22;23697;48.684;9.032;2022-10-16T14:45:53;22.00;62.30
37322;DHT22;23697;48.684;9.032;2022-10-16T14:48:20;22.00;61.70
37322;DHT22;23697;48.684;9.032;2022-10-16T14:50:48;21.90;62.40
37322;DHT22;23697;48.684;9.032;2022-10-16T14:53:15;21.90;62.60
37322;DHT22;23697;48.684;9.032;2022-10-16T14:55:44;21.80;63.00
37322;DHT22;23697;48.684;9.032;2022-10-16T14:58:13;21.80;63.20
37322;DHT22;23697;48.684;9.032;2022-10-16T15:00:41;21.80;63.50
37322;DHT22;23697;48.684;9.032;2022-10-16T15:03:07;21.80;63.60
37322;DHT22;23697;48.684;9.032;2022-10-16T15:08:20;21.90;64.10
37322;DHT22;23697;48.684;9.032;2022-10-16T15:10:48;21.80;65.60
37322;DHT22;23697;48.684;9.032;2022-10-16T15:13:15;21.70;64.60
37322;DHT22;23697;48.684;9.032;2022-10-16T15:15:42;21.70;65.00
37322;DHT22;23697;48.684;9.032;2022-10-16T15:18:09;21.60;65.00
37322;DHT22;23697;48.684;9.032;2022-10-16T15:20:37;21.60;65.90
37322;DHT22;23697;48.684;9.032;2022-10-16T15:23:04;21.60;65.40
37322;DHT22;23697;48.684;9.032;2022-10-16T15:25:34;21.60;65.50
37322;DHT22;23697;48.684;9.032;2022-10-16T15:28:02;21.60;65.80
37322;DHT22;23697;48.684;9.032;2022-10-16T15:30:29;21.60;66.80
37322;DHT22;23697;48.684;9.032;2022-10-16T15:32:56;21.40;66.20
37322;DHT22;23697;48.684;9.032;2022-10-16T15:35:23;21.30;66.40
37322;DHT22;23697;48.684;9.032;2022-10-16T15:37:50;21.20;68.10
37322;DHT22;23697;48.684;9.032;2022-10-16T15:40:17;21.00;68.20
37322;DHT22;23697;48.684;9.032;2022-10-16T15:42:44;20.90;68.50
37322;DHT22;23697;48.684;9.032;2022-10-16T15:45:12;20.80;69.70
37322;DHT22;23697;48.684;9.032;2022-10-16T15:47:40;20.70;70.10
37322;DHT22;23697;48.684;9.032;2022-10-16T15:50:07;20.60;69.40
37322;DHT22;23697;48.684;9.032;2022-10-16T15:52:35;20.50;70.20
37322;DHT22;23697;48.684;9.032;2022-10-16T15:55:02;20.40;69.70
37322;DHT22;23697;48.684;9.032;2022-10-16T15:57:29;20.20;70.60
37322;DHT22;23697;48.684;9.032;2022-10-16T15:59:55;20.10;70.90
37322;DHT22;23697;48.684;9.032;2022-10-16T16:02:23;20.10;70.90
37322;DHT22;23697;48.684;9.032;2022-10-16T16:04:50;20.00;71.70
37322;DHT22;23697;48.684;9.032;2022-10-16T16:07:17;19.80;72.50
37322;DHT22;23697;48.684;9.032;2022-10-16T16:09:44;19.70;72.60
37322;DHT22;23697;48.684;9.032;2022-10-16T16:12:10;19.60;74.30
37322;DHT22;23697;48.684;9.032;2022-10-16T16:14:37;19.60;75.50
37322;DHT22;23697;48.684;9.032;2022-10-16T16:17:04;19.50;76.20
37322;DHT22;23697;48.684;9.032;2022-10-16T16:19:32;19.40;76.80
37322;DHT22;23697;48.684;9.032;2022-10-16T16:21:59;19.30;77.00
37322;DHT22;23697;48.684;9.032;2022-10-16T16:24:25;19.10;77.00